SBI758 OKKK-OBBI
Flight info
| Callsign | SBI758 |
|---|---|
| Flight time | 0h 49m |
| Altitude | 31000 |
| Route | BOXIK B416 IMDOX P975 LONOS L703 LOPOL L704 GEPUT L703 GODRI L704 GOGRA L703 OBNAX L704 DEKTA L703 VELOG L704 KOBOK |
| Aircraft | A20N/M-SDE3FGHIRWY/C |
Departure
| Time | 2026-04-27 17:08 |
|---|---|
| Airport | Kuwait International Airport (OKKK) |
Arrival
| Time | 2026-04-27 17:57 |
|---|---|
| Airport | Bahrain International Airport (OBBI) |
| Time | Latitude | Longitude | Altitude | Speed | Heading |
|---|---|---|---|---|---|
| 2026-04-27 16:34 | 29.23830 | 47.96872 | 151 ft | 0 kts | 335° |
| 2026-04-27 16:56 | 29.23818 | 47.96878 | 151 ft | 2 kts | 334° |
| 2026-04-27 16:56 | 29.23804 | 47.96886 | 151 ft | 2 kts | 335° |
| 2026-04-27 16:56 | 29.23793 | 47.96892 | 151 ft | 0 kts | 335° |
| 2026-04-27 16:57 | 29.23782 | 47.96898 | 151 ft | 2 kts | 319° |
| 2026-04-27 16:57 | 29.23772 | 47.96911 | 151 ft | 2 kts | 300° |
| 2026-04-27 16:57 | 29.23767 | 47.96927 | 151 ft | 2 kts | 280° |
| 2026-04-27 16:57 | 29.23766 | 47.96944 | 152 ft | 2 kts | 260° |
| 2026-04-27 16:58 | 29.23769 | 47.96955 | 152 ft | 0 kts | 246° |
| 2026-04-27 16:58 | 29.23772 | 47.96962 | 152 ft | 0 kts | 244° |
| 2026-04-27 17:00 | 29.23769 | 47.96954 | 152 ft | 3 kts | 244° |
| 2026-04-27 17:00 | 29.23739 | 47.96888 | 150 ft | 11 kts | 243° |
| 2026-04-27 17:00 | 29.23703 | 47.96802 | 148 ft | 11 kts | 245° |
| 2026-04-27 17:01 | 29.23674 | 47.96731 | 146 ft | 9 kts | 246° |
| 2026-04-27 17:01 | 29.23655 | 47.96646 | 144 ft | 13 kts | 280° |
| 2026-04-27 17:01 | 29.23739 | 47.96571 | 144 ft | 18 kts | 335° |
| 2026-04-27 17:01 | 29.23871 | 47.96499 | 143 ft | 21 kts | 334° |
| 2026-04-27 17:02 | 29.23962 | 47.96448 | 143 ft | 10 kts | 334° |
| 2026-04-27 17:02 | 29.24027 | 47.96412 | 142 ft | 11 kts | 334° |
| 2026-04-27 17:02 | 29.24078 | 47.96383 | 141 ft | 6 kts | 326° |
| 2026-04-27 17:02 | 29.24089 | 47.96342 | 141 ft | 6 kts | 265° |
| 2026-04-27 17:03 | 29.24081 | 47.96304 | 141 ft | 0 kts | 247° |
| 2026-04-27 17:03 | 29.24080 | 47.96301 | 141 ft | 0 kts | 246° |
| 2026-04-27 17:05 | 29.24080 | 47.96300 | 141 ft | 0 kts | 246° |
| 2026-04-27 17:05 | 29.24075 | 47.96287 | 141 ft | 4 kts | 246° |
| 2026-04-27 17:05 | 29.24057 | 47.96243 | 142 ft | 8 kts | 244° |
| 2026-04-27 17:06 | 29.24020 | 47.96182 | 142 ft | 9 kts | 213° |
| 2026-04-27 17:06 | 29.23982 | 47.96189 | 142 ft | 0 kts | 155° |
| 2026-04-27 17:06 | 29.23980 | 47.96191 | 142 ft | 0 kts | 155° |
| 2026-04-27 17:06 | 29.23979 | 47.96191 | 142 ft | 0 kts | 155° |
| 2026-04-27 17:07 | 29.23958 | 47.96202 | 142 ft | 22 kts | 155° |
| 2026-04-27 17:07 | 29.23557 | 47.96417 | 145 ft | 102 kts | 155° |
| 2026-04-27 17:07 | 29.22716 | 47.96870 | 167 ft | 162 kts | 153° |
| 2026-04-27 17:08 | 29.21641 | 47.97457 | 820 ft | 177 kts | 153° |
| 2026-04-27 17:08 | 29.20594 | 47.98111 | 1896 ft | 179 kts | 151° |
| 2026-04-27 17:08 | 29.19714 | 47.99109 | 2815 ft | 191 kts | 126° |
| 2026-04-27 17:08 | 29.19103 | 48.00554 | 3447 ft | 214 kts | 118° |
| 2026-04-27 17:09 | 29.18473 | 48.02197 | 3931 ft | 243 kts | 119° |
| 2026-04-27 17:09 | 29.17725 | 48.04038 | 4641 ft | 263 kts | 120° |
| 2026-04-27 17:09 | 29.16924 | 48.05922 | 5361 ft | 269 kts | 120° |
| 2026-04-27 17:09 | 29.16083 | 48.07857 | 5828 ft | 270 kts | 120° |
| 2026-04-27 17:10 | 29.15348 | 48.09837 | 6040 ft | 274 kts | 109° |
| 2026-04-27 17:10 | 29.15055 | 48.12013 | 6167 ft | 285 kts | 96° |
| 2026-04-27 17:10 | 29.15047 | 48.14290 | 6843 ft | 290 kts | 93° |
| 2026-04-27 17:10 | 29.15067 | 48.16578 | 7455 ft | 289 kts | 92° |
| 2026-04-27 17:11 | 29.15089 | 48.18873 | 7909 ft | 291 kts | 92° |
| 2026-04-27 17:11 | 29.15109 | 48.23528 | 8064 ft | 292 kts | 92° |
| 2026-04-27 17:11 | 29.15114 | 48.25850 | 8055 ft | 292 kts | 92° |
| 2026-04-27 17:12 | 29.15112 | 48.30572 | 8933 ft | 302 kts | 92° |
| 2026-04-27 17:12 | 29.15014 | 48.32940 | 9754 ft | 302 kts | 103° |
| 2026-04-27 17:12 | 29.14261 | 48.35145 | 10448 ft | 302 kts | 125° |
| 2026-04-27 17:13 | 29.12915 | 48.37066 | 10911 ft | 315 kts | 134° |
| 2026-04-27 17:13 | 29.11413 | 48.38973 | 11278 ft | 333 kts | 134° |
| 2026-04-27 17:13 | 29.09929 | 48.41089 | 11599 ft | 353 kts | 128° |
| 2026-04-27 17:13 | 29.08491 | 48.43435 | 11907 ft | 371 kts | 126° |
| 2026-04-27 17:14 | 29.06993 | 48.45930 | 12223 ft | 387 kts | 126° |
| 2026-04-27 17:14 | 29.05431 | 48.48515 | 12518 ft | 403 kts | 127° |
| 2026-04-27 17:14 | 29.03804 | 48.51178 | 12782 ft | 418 kts | 127° |
| 2026-04-27 17:14 | 29.02106 | 48.53946 | 13157 ft | 428 kts | 127° |
| 2026-04-27 17:15 | 29.00403 | 48.56713 | 13757 ft | 432 kts | 127° |
| 2026-04-27 17:15 | 28.98650 | 48.59547 | 14413 ft | 435 kts | 127° |
| 2026-04-27 17:15 | 28.96909 | 48.62364 | 15021 ft | 437 kts | 127° |
| 2026-04-27 17:15 | 28.95170 | 48.65171 | 15579 ft | 441 kts | 128° |
| 2026-04-27 17:16 | 28.93389 | 48.68042 | 16126 ft | 444 kts | 128° |
| 2026-04-27 17:16 | 28.91654 | 48.70838 | 16658 ft | 447 kts | 128° |
| 2026-04-27 17:16 | 28.89834 | 48.73766 | 17191 ft | 450 kts | 128° |
| 2026-04-27 17:16 | 28.88015 | 48.76687 | 17659 ft | 454 kts | 128° |
| 2026-04-27 17:17 | 28.86180 | 48.79634 | 18159 ft | 458 kts | 128° |
| 2026-04-27 17:17 | 28.84334 | 48.82600 | 18646 ft | 461 kts | 128° |
| 2026-04-27 17:17 | 28.82454 | 48.85616 | 19095 ft | 465 kts | 129° |
| 2026-04-27 17:18 | 28.78711 | 48.91617 | 20065 ft | 469 kts | 129° |
| 2026-04-27 17:18 | 28.76812 | 48.94658 | 20512 ft | 473 kts | 129° |
| 2026-04-27 17:18 | 28.74915 | 48.97693 | 20971 ft | 475 kts | 129° |
| 2026-04-27 17:18 | 28.73002 | 49.00751 | 21403 ft | 478 kts | 129° |
| 2026-04-27 17:19 | 28.71053 | 49.03865 | 21863 ft | 481 kts | 130° |
| 2026-04-27 17:19 | 28.69105 | 49.06971 | 22283 ft | 483 kts | 129° |
| 2026-04-27 17:19 | 28.67153 | 49.10085 | 22647 ft | 487 kts | 129° |
| 2026-04-27 17:19 | 28.65191 | 49.13217 | 23014 ft | 491 kts | 130° |
| 2026-04-27 17:20 | 28.63200 | 49.16390 | 23380 ft | 494 kts | 130° |
| 2026-04-27 17:20 | 28.61190 | 49.19586 | 23700 ft | 498 kts | 130° |
| 2026-04-27 17:20 | 28.58975 | 49.22592 | 24104 ft | 492 kts | 140° |
| 2026-04-27 17:20 | 28.56428 | 49.25104 | 24633 ft | 483 kts | 148° |
| 2026-04-27 17:21 | 28.53673 | 49.27222 | 25147 ft | 479 kts | 153° |
| 2026-04-27 17:21 | 28.50878 | 49.29269 | 25492 ft | 483 kts | 152° |
| 2026-04-27 17:21 | 28.48134 | 49.31506 | 25762 ft | 490 kts | 147° |
| 2026-04-27 17:21 | 28.45479 | 49.33977 | 26029 ft | 496 kts | 145° |
| 2026-04-27 17:22 | 28.42823 | 49.36553 | 26358 ft | 499 kts | 145° |
| 2026-04-27 17:22 | 28.40235 | 49.39109 | 26690 ft | 501 kts | 144° |
| 2026-04-27 17:22 | 28.37608 | 49.41719 | 26811 ft | 503 kts | 144° |
| 2026-04-27 17:22 | 28.34966 | 49.44347 | 26811 ft | 504 kts | 144° |
| 2026-04-27 17:23 | 28.32317 | 49.46979 | 26814 ft | 504 kts | 144° |
| 2026-04-27 17:23 | 28.29696 | 49.49570 | 26814 ft | 506 kts | 144° |
| 2026-04-27 17:23 | 28.27016 | 49.52214 | 26817 ft | 507 kts | 144° |
| 2026-04-27 17:23 | 28.24373 | 49.54820 | 26821 ft | 507 kts | 144° |
| 2026-04-27 17:24 | 28.21661 | 49.57427 | 26814 ft | 507 kts | 146° |
| 2026-04-27 17:24 | 28.18889 | 49.59863 | 26814 ft | 507 kts | 148° |
| 2026-04-27 17:24 | 28.16091 | 49.62272 | 26811 ft | 507 kts | 148° |
| 2026-04-27 17:24 | 28.13248 | 49.64713 | 26815 ft | 508 kts | 148° |
| 2026-04-27 17:25 | 28.10433 | 49.67132 | 26823 ft | 508 kts | 148° |
| 2026-04-27 17:25 | 28.07624 | 49.69542 | 26818 ft | 510 kts | 148° |
| 2026-04-27 17:25 | 28.04783 | 49.71949 | 26811 ft | 509 kts | 150° |
| 2026-04-27 17:25 | 28.01866 | 49.74247 | 26809 ft | 510 kts | 151° |
| 2026-04-27 17:26 | 27.98939 | 49.76524 | 26811 ft | 508 kts | 151° |
| 2026-04-27 17:26 | 27.96030 | 49.78785 | 26811 ft | 508 kts | 152° |
| 2026-04-27 17:26 | 27.93107 | 49.81055 | 26811 ft | 509 kts | 152° |
| 2026-04-27 17:26 | 27.90522 | 49.83063 | 26802 ft | 510 kts | 152° |
| 2026-04-27 17:27 | 27.87597 | 49.85333 | 26808 ft | 510 kts | 151° |
| 2026-04-27 17:27 | 27.84669 | 49.87605 | 26807 ft | 510 kts | 152° |
| 2026-04-27 17:27 | 27.81734 | 49.89883 | 26805 ft | 511 kts | 151° |
| 2026-04-27 17:27 | 27.78764 | 49.92181 | 26809 ft | 511 kts | 151° |
| 2026-04-27 17:28 | 27.75838 | 49.94441 | 26813 ft | 512 kts | 151° |
| 2026-04-27 17:28 | 27.72924 | 49.96690 | 26822 ft | 513 kts | 151° |
| 2026-04-27 17:28 | 27.67117 | 50.01176 | 26819 ft | 513 kts | 151° |
| 2026-04-27 17:29 | 27.64148 | 50.03471 | 26821 ft | 512 kts | 151° |
| 2026-04-27 17:29 | 27.61250 | 50.05708 | 26823 ft | 511 kts | 152° |
| 2026-04-27 17:29 | 27.58282 | 50.07996 | 26824 ft | 511 kts | 151° |
| 2026-04-27 17:29 | 27.55371 | 50.10238 | 26825 ft | 511 kts | 151° |
| 2026-04-27 17:30 | 27.52440 | 50.12497 | 26821 ft | 511 kts | 152° |
| 2026-04-27 17:30 | 27.46550 | 50.17029 | 26823 ft | 511 kts | 152° |
| 2026-04-27 17:30 | 27.43632 | 50.19286 | 26823 ft | 511 kts | 150° |
| 2026-04-27 17:31 | 27.40742 | 50.21603 | 26819 ft | 512 kts | 150° |
| 2026-04-27 17:31 | 27.37848 | 50.23967 | 26816 ft | 511 kts | 149° |
| 2026-04-27 17:31 | 27.34989 | 50.26307 | 26813 ft | 512 kts | 150° |
| 2026-04-27 17:31 | 27.32134 | 50.28640 | 26681 ft | 506 kts | 150° |
| 2026-04-27 17:32 | 27.29295 | 50.30945 | 26101 ft | 501 kts | 150° |
| 2026-04-27 17:32 | 27.23660 | 50.35489 | 24337 ft | 499 kts | 149° |
| 2026-04-27 17:32 | 27.20842 | 50.37754 | 23392 ft | 499 kts | 148° |
| 2026-04-27 17:33 | 27.18038 | 50.40012 | 22577 ft | 495 kts | 148° |
| 2026-04-27 17:33 | 27.15274 | 50.42246 | 21986 ft | 486 kts | 148° |
| 2026-04-27 17:33 | 27.12545 | 50.44454 | 21415 ft | 482 kts | 148° |
| 2026-04-27 17:33 | 27.09849 | 50.46632 | 20828 ft | 476 kts | 148° |
| 2026-04-27 17:34 | 27.07188 | 50.48777 | 20214 ft | 471 kts | 148° |
| 2026-04-27 17:34 | 27.04529 | 50.50914 | 19564 ft | 466 kts | 147° |
| 2026-04-27 17:34 | 27.01888 | 50.53038 | 18962 ft | 460 kts | 147° |
| 2026-04-27 17:34 | 26.99276 | 50.54902 | 18373 ft | 439 kts | 156° |
| 2026-04-27 17:35 | 26.96504 | 50.56089 | 17721 ft | 412 kts | 168° |
| 2026-04-27 17:35 | 26.93780 | 50.56680 | 17125 ft | 388 kts | 172° |
| 2026-04-27 17:35 | 26.91264 | 50.57583 | 16470 ft | 378 kts | 155° |
| 2026-04-27 17:35 | 26.89185 | 50.59336 | 15862 ft | 368 kts | 137° |
| 2026-04-27 17:36 | 26.87483 | 50.61415 | 15259 ft | 357 kts | 134° |
| 2026-04-27 17:36 | 26.85931 | 50.63467 | 14665 ft | 346 kts | 133° |
| 2026-04-27 17:36 | 26.84404 | 50.65533 | 14053 ft | 337 kts | 133° |
| 2026-04-27 17:36 | 26.82947 | 50.67523 | 13448 ft | 328 kts | 133° |
| 2026-04-27 17:37 | 26.81521 | 50.69486 | 12896 ft | 319 kts | 133° |
| 2026-04-27 17:37 | 26.80156 | 50.71370 | 12539 ft | 304 kts | 133° |
| 2026-04-27 17:37 | 26.78846 | 50.73178 | 12087 ft | 295 kts | 133° |
| 2026-04-27 17:37 | 26.77572 | 50.74928 | 11646 ft | 288 kts | 133° |
| 2026-04-27 17:38 | 26.76321 | 50.76637 | 11140 ft | 285 kts | 133° |
| 2026-04-27 17:38 | 26.75062 | 50.78344 | 10634 ft | 281 kts | 133° |
| 2026-04-27 17:38 | 26.73835 | 50.80004 | 10174 ft | 276 kts | 133° |
| 2026-04-27 17:38 | 26.72608 | 50.81657 | 9994 ft | 267 kts | 133° |
| 2026-04-27 17:39 | 26.71523 | 50.83266 | 9980 ft | 259 kts | 122° |
| 2026-04-27 17:39 | 26.70754 | 50.85088 | 9998 ft | 260 kts | 115° |
| 2026-04-27 17:39 | 26.70085 | 50.86988 | 9993 ft | 260 kts | 113° |
| 2026-04-27 17:39 | 26.69448 | 50.88872 | 9994 ft | 260 kts | 113° |
| 2026-04-27 17:40 | 26.68822 | 50.90746 | 9998 ft | 260 kts | 113° |
| 2026-04-27 17:40 | 26.68191 | 50.92645 | 9996 ft | 260 kts | 113° |
| 2026-04-27 17:40 | 26.67559 | 50.94547 | 9997 ft | 259 kts | 113° |
| 2026-04-27 17:40 | 26.66933 | 50.96431 | 10004 ft | 260 kts | 113° |
| 2026-04-27 17:41 | 26.66152 | 50.98215 | 9983 ft | 255 kts | 135° |
| 2026-04-27 17:41 | 26.64714 | 50.99239 | 9987 ft | 244 kts | 173° |
| 2026-04-27 17:41 | 26.63065 | 50.99123 | 10018 ft | 236 kts | 204° |
| 2026-04-27 17:41 | 26.61677 | 50.98197 | 9925 ft | 228 kts | 226° |
| 2026-04-27 17:42 | 26.60647 | 50.96858 | 9553 ft | 230 kts | 231° |
| 2026-04-27 17:42 | 26.59634 | 50.95480 | 9164 ft | 232 kts | 231° |
| 2026-04-27 17:42 | 26.58587 | 50.94100 | 8841 ft | 231 kts | 230° |
| 2026-04-27 17:42 | 26.57540 | 50.92748 | 8589 ft | 227 kts | 230° |
| 2026-04-27 17:43 | 26.56519 | 50.91449 | 8427 ft | 218 kts | 230° |
| 2026-04-27 17:43 | 26.55531 | 50.90201 | 8261 ft | 211 kts | 230° |
| 2026-04-27 17:43 | 26.54575 | 50.88997 | 8061 ft | 206 kts | 230° |
| 2026-04-27 17:43 | 26.53614 | 50.87788 | 8023 ft | 208 kts | 230° |
| 2026-04-27 17:44 | 26.52659 | 50.86591 | 8019 ft | 208 kts | 230° |
| 2026-04-27 17:44 | 26.51691 | 50.85379 | 8011 ft | 207 kts | 230° |
| 2026-04-27 17:44 | 26.50738 | 50.84188 | 8010 ft | 206 kts | 230° |
| 2026-04-27 17:44 | 26.49788 | 50.83001 | 7824 ft | 203 kts | 230° |
| 2026-04-27 17:45 | 26.48847 | 50.81827 | 7489 ft | 205 kts | 230° |
| 2026-04-27 17:45 | 26.47892 | 50.80634 | 7178 ft | 204 kts | 230° |
| 2026-04-27 17:45 | 26.46944 | 50.79451 | 6859 ft | 205 kts | 230° |
| 2026-04-27 17:45 | 26.45996 | 50.78268 | 6542 ft | 205 kts | 230° |
| 2026-04-27 17:46 | 26.45044 | 50.77084 | 6236 ft | 206 kts | 229° |
| 2026-04-27 17:46 | 26.44001 | 50.75985 | 5921 ft | 207 kts | 221° |
| 2026-04-27 17:46 | 26.42832 | 50.75035 | 5627 ft | 207 kts | 213° |
| 2026-04-27 17:46 | 26.41597 | 50.74240 | 5346 ft | 205 kts | 211° |
| 2026-04-27 17:47 | 26.40342 | 50.73465 | 5065 ft | 205 kts | 210° |
| 2026-04-27 17:47 | 26.39546 | 50.72901 | 4875 ft | 204 kts | 221° |
| 2026-04-27 17:47 | 26.38504 | 50.71180 | 4462 ft | 204 kts | 260° |
| 2026-04-27 17:47 | 26.38650 | 50.69632 | 4164 ft | 206 kts | 292° |
| 2026-04-27 17:48 | 26.39337 | 50.68230 | 3849 ft | 208 kts | 301° |
| 2026-04-27 17:48 | 26.40134 | 50.66889 | 3558 ft | 209 kts | 303° |
| 2026-04-27 17:48 | 26.40954 | 50.65550 | 3272 ft | 209 kts | 303° |
| 2026-04-27 17:48 | 26.41777 | 50.64207 | 3030 ft | 208 kts | 303° |
| 2026-04-27 17:49 | 26.42601 | 50.62858 | 3015 ft | 211 kts | 303° |
| 2026-04-27 17:49 | 26.43422 | 50.61512 | 3011 ft | 211 kts | 303° |
| 2026-04-27 17:49 | 26.44251 | 50.60149 | 3004 ft | 211 kts | 303° |
| 2026-04-27 17:49 | 26.45072 | 50.58798 | 3002 ft | 212 kts | 303° |
| 2026-04-27 17:50 | 26.45909 | 50.57422 | 3003 ft | 213 kts | 303° |
| 2026-04-27 17:50 | 26.47224 | 50.54541 | 2984 ft | 210 kts | 268° |
| 2026-04-27 17:50 | 26.46847 | 50.52997 | 2992 ft | 206 kts | 231° |
| 2026-04-27 17:51 | 26.45847 | 50.51870 | 3011 ft | 205 kts | 217° |
| 2026-04-27 17:51 | 26.44723 | 50.50919 | 2997 ft | 204 kts | 214° |
| 2026-04-27 17:51 | 26.43563 | 50.49992 | 2980 ft | 203 kts | 211° |
| 2026-04-27 17:51 | 26.42297 | 50.49292 | 2987 ft | 201 kts | 197° |
| 2026-04-27 17:52 | 26.40962 | 50.48830 | 3010 ft | 200 kts | 194° |
| 2026-04-27 17:52 | 26.39632 | 50.48420 | 3002 ft | 200 kts | 193° |
| 2026-04-27 17:52 | 26.38284 | 50.48016 | 2989 ft | 199 kts | 193° |
| 2026-04-27 17:52 | 26.36917 | 50.47817 | 2892 ft | 198 kts | 168° |
| 2026-04-27 17:53 | 26.35717 | 50.48494 | 2705 ft | 192 kts | 136° |
| 2026-04-27 17:53 | 26.34906 | 50.49642 | 2481 ft | 186 kts | 122° |
| 2026-04-27 17:53 | 26.34251 | 50.50859 | 2216 ft | 182 kts | 120° |
| 2026-04-27 17:53 | 26.33620 | 50.52036 | 1959 ft | 171 kts | 120° |
| 2026-04-27 17:54 | 26.33010 | 50.53122 | 1727 ft | 160 kts | 120° |
| 2026-04-27 17:54 | 26.32424 | 50.54135 | 1523 ft | 149 kts | 120° |
| 2026-04-27 17:54 | 26.31875 | 50.55077 | 1370 ft | 142 kts | 120° |
| 2026-04-27 17:54 | 26.31344 | 50.55992 | 1197 ft | 139 kts | 120° |
| 2026-04-27 17:55 | 26.30818 | 50.56902 | 1026 ft | 139 kts | 121° |
| 2026-04-27 17:55 | 26.30305 | 50.57793 | 858 ft | 138 kts | 120° |
| 2026-04-27 17:55 | 26.29787 | 50.58699 | 688 ft | 138 kts | 121° |
| 2026-04-27 17:55 | 26.29253 | 50.59599 | 500 ft | 138 kts | 121° |
| 2026-04-27 17:56 | 26.28737 | 50.60494 | 314 ft | 137 kts | 121° |
| 2026-04-27 17:56 | 26.28231 | 50.61386 | 160 ft | 137 kts | 121° |
| 2026-04-27 17:56 | 26.27714 | 50.62271 | 18 ft | 134 kts | 122° |
| 2026-04-27 17:56 | 26.27307 | 50.62992 | 12 ft | 70 kts | 122° |
| 2026-04-27 17:57 | 26.27108 | 50.63345 | 12 ft | 40 kts | 125° |
| 2026-04-27 17:57 | 26.26977 | 50.63480 | 12 ft | 17 kts | 184° |
| 2026-04-27 17:57 | 26.26905 | 50.63447 | 12 ft | 8 kts | 205° |
| 2026-04-27 17:57 | 26.26880 | 50.63436 | 12 ft | 0 kts | 200° |
| 2026-04-27 17:58 | 26.26864 | 50.63434 | 12 ft | 7 kts | 176° |
| 2026-04-27 17:58 | 26.26797 | 50.63496 | 12 ft | 18 kts | 124° |
| 2026-04-27 17:58 | 26.26718 | 50.63635 | 12 ft | 20 kts | 121° |
| 2026-04-27 17:59 | 26.26665 | 50.63729 | 12 ft | 4 kts | 123° |
| 2026-04-27 17:59 | 26.26619 | 50.63767 | 12 ft | 8 kts | 202° |
| 2026-04-27 17:59 | 26.26592 | 50.63756 | 12 ft | 0 kts | 199° |
| 2026-04-27 17:59 | 26.26575 | 50.63749 | 12 ft | 8 kts | 199° |
| 2026-04-27 18:00 | 26.26565 | 50.63706 | 12 ft | 12 kts | 295° |
| 2026-04-27 18:00 | 26.26601 | 50.63638 | 12 ft | 3 kts | 302° |
| 2026-04-27 18:00 | 26.26621 | 50.63602 | 12 ft | 7 kts | 302° |
| 2026-04-27 18:00 | 26.26666 | 50.63525 | 12 ft | 15 kts | 304° |
| 2026-04-27 18:01 | 26.26731 | 50.63412 | 12 ft | 17 kts | 303° |
| 2026-04-27 18:01 | 26.26798 | 50.63295 | 12 ft | 17 kts | 303° |
| 2026-04-27 18:01 | 26.26865 | 50.63178 | 12 ft | 17 kts | 303° |
| 2026-04-27 18:01 | 26.26934 | 50.63061 | 12 ft | 14 kts | 302° |
| 2026-04-27 18:02 | 26.26950 | 50.62993 | 12 ft | 4 kts | 238° |
| 2026-04-27 18:02 | 26.26920 | 50.62967 | 12 ft | 6 kts | 214° |
| 2026-04-27 18:02 | 26.26889 | 50.62943 | 12 ft | 0 kts | 213° |
| 2026-04-27 18:02 | 26.26883 | 50.62939 | 12 ft | 2 kts | 213° |
| 2026-04-27 18:03 | 26.26880 | 50.62936 | 12 ft | 0 kts | 213° |